createdAt,value
2023-04-10T00:01:12.648Z,95454.50
2023-04-10T00:03:42.899Z,95449.13
2023-04-10T00:06:11.054Z,95455.59
2023-04-10T00:08:39.012Z,95450.22
2023-04-10T00:11:07.169Z,95454.50
2023-04-10T00:13:35.119Z,95433.78
2023-04-10T00:16:03.385Z,95446.94
2023-04-10T00:18:31.363Z,95451.50
2023-04-10T00:21:00.720Z,95439.97
2023-04-10T00:23:28.695Z,95445.34
2023-04-10T00:25:56.639Z,95435.06
2023-04-10T00:28:24.715Z,95422.56
2023-04-10T00:30:52.795Z,95443.13
2023-04-10T00:33:20.842Z,95439.69
2023-04-10T00:35:48.876Z,95426.06
2023-04-10T00:38:18.242Z,95432.75
2023-04-10T00:40:46.387Z,95443.50
2023-04-10T00:43:14.372Z,95430.38
2023-04-10T00:45:42.624Z,95410.47
2023-04-10T00:48:10.841Z,95412.34
2023-04-10T00:50:39.009Z,95434.81
2023-04-10T00:53:07.283Z,95433.19
2023-04-10T00:55:37.106Z,95428.75
2023-04-10T00:58:05.357Z,95426.69
2023-04-10T01:00:33.384Z,95425.13
2023-04-10T01:03:01.927Z,95419.75
2023-04-10T01:05:48.072Z,95414.19
2023-04-10T01:08:27.774Z,95413.84
2023-04-10T01:11:06.147Z,95406.56
2023-04-10T01:13:41.988Z,95400.09
2023-04-10T01:16:15.740Z,95344.50
2023-04-10T01:18:49.913Z,95391.50
2023-04-10T01:21:19.047Z,95409.56
2023-04-10T01:24:10.759Z,95408.28
2023-04-10T01:26:57.985Z,95411.13
2023-04-10T01:29:30.620Z,95400.88
2023-04-10T01:32:03.970Z,95406.44
2023-04-10T01:34:37.175Z,95406.59
2023-04-10T01:37:13.355Z,95296.75
2023-04-10T01:39:43.932Z,95392.56
2023-04-10T01:42:15.207Z,95407.16
2023-04-10T01:44:47.022Z,95414.28
2023-04-10T01:47:16.515Z,95394.06
2023-04-10T01:49:46.955Z,95399.13
2023-04-10T01:52:16.174Z,95399.84
2023-04-10T01:54:45.829Z,95403.28
2023-04-10T01:57:15.507Z,95382.78
2023-04-10T01:59:45.679Z,95406.88
2023-04-10T02:02:13.658Z,95404.97
2023-04-10T02:04:41.723Z,95415.16
2023-04-10T02:07:15.750Z,95344.84
2023-04-10T02:09:51.862Z,95384.75
2023-04-10T02:12:24.909Z,95381.75
2023-04-10T02:14:56.933Z,95396.16
2023-04-10T02:17:28.860Z,95364.81
2023-04-10T02:19:57.608Z,95376.88
2023-04-10T02:22:27.138Z,95379.44
2023-04-10T02:24:55.633Z,95367.03
2023-04-10T02:27:33.792Z,95336.69
2023-04-10T02:30:04.450Z,95375.81
2023-04-10T02:32:33.355Z,95375.53
2023-04-10T02:35:02.155Z,95361.78
2023-04-10T02:37:30.244Z,95351.91
2023-04-10T02:39:58.254Z,95370.91
2023-04-10T02:42:26.194Z,95360.63
2023-04-10T02:44:54.228Z,95364.63
2023-04-10T02:47:23.992Z,95366.50
2023-04-10T02:49:51.983Z,95354.69
2023-04-10T02:52:19.951Z,95285.84
2023-04-10T02:54:48.387Z,95354.22
2023-04-10T02:57:17.651Z,95356.41
2023-04-10T02:59:45.793Z,95352.00
2023-04-10T03:02:13.879Z,95342.94
2023-04-10T03:04:43.442Z,95350.69
2023-04-10T03:07:11.493Z,95354.31
2023-04-10T03:09:39.422Z,95349.53
2023-04-10T03:12:07.427Z,95346.03
2023-04-10T03:14:35.379Z,95335.41
2023-04-10T03:17:03.649Z,95335.53
2023-04-10T03:19:31.597Z,95362.81
2023-04-10T03:22:00.926Z,95361.91
2023-04-10T03:24:29.032Z,95338.63
2023-04-10T03:26:57.793Z,95369.81
2023-04-10T03:29:25.881Z,95350.06
2023-04-10T03:31:53.860Z,95364.94
2023-04-10T03:34:21.794Z,95336.84
2023-04-10T03:36:49.692Z,95361.47
2023-04-10T03:39:19.008Z,95365.19
2023-04-10T03:41:46.873Z,95351.41
2023-04-10T03:44:14.811Z,95350.56
2023-04-10T03:46:42.822Z,95313.84
2023-04-10T03:49:12.232Z,95352.66
2023-04-10T03:51:40.243Z,95373.41
2023-04-10T03:54:08.256Z,95360.56
2023-04-10T03:56:37.647Z,95378.78
2023-04-10T03:59:05.674Z,95377.97
2023-04-10T04:01:34.101Z,95382.63
2023-04-10T04:04:02.315Z,95360.81
2023-04-10T04:06:31.239Z,95364.41
2023-04-10T04:08:59.139Z,95382.06
2023-04-10T04:11:27.837Z,95387.91
2023-04-10T04:13:57.199Z,95384.66
2023-04-10T04:16:25.490Z,95393.78
2023-04-10T04:18:53.415Z,95391.75
2023-04-10T04:21:21.323Z,95371.56
2023-04-10T04:23:49.256Z,95389.22
2023-04-10T04:26:17.236Z,95336.25
2023-04-10T04:28:45.304Z,95377.31
2023-04-10T04:31:14.623Z,95388.75
2023-04-10T04:33:42.556Z,95392.50
2023-04-10T04:36:10.556Z,95387.19
2023-04-10T04:38:38.516Z,95389.22
2023-04-10T04:41:06.962Z,95384.97
2023-04-10T04:43:35.011Z,95386.25
2023-04-10T04:46:03.523Z,95399.44
2023-04-10T04:48:32.905Z,95394.56
2023-04-10T04:51:00.829Z,95386.63
2023-04-10T04:53:29.068Z,95351.06
2023-04-10T04:55:58.645Z,95394.84
2023-04-10T04:58:26.596Z,95401.63
2023-04-10T05:00:55.196Z,95404.97
2023-04-10T05:03:23.470Z,95404.50
2023-04-10T05:05:53.045Z,95410.03
2023-04-10T05:08:20.974Z,95350.13
2023-04-10T05:10:49.845Z,95409.72
2023-04-10T05:13:18.192Z,95405.59
2023-04-10T05:15:46.522Z,95393.09
2023-04-10T05:18:19.769Z,95412.81
2023-04-10T05:20:48.057Z,95396.13
2023-04-10T05:23:17.746Z,95407.63
2023-04-10T05:25:46.048Z,95410.25
2023-04-10T05:28:14.857Z,95405.19
2023-04-10T05:30:42.864Z,95405.13
2023-04-10T05:33:11.102Z,95398.47
2023-04-10T05:35:39.324Z,95398.09
2023-04-10T05:38:08.977Z,95353.75
2023-04-10T05:40:38.351Z,95401.06
2023-04-10T05:43:06.383Z,95379.59
2023-04-10T05:45:34.567Z,95336.47
2023-04-10T05:48:02.661Z,95410.81
2023-04-10T05:50:30.795Z,95367.56
2023-04-10T05:52:58.978Z,95406.25
2023-04-10T05:55:27.035Z,95379.69
2023-04-10T05:57:56.516Z,95407.94
2023-04-10T06:00:24.846Z,95410.34
2023-04-10T06:02:53.034Z,95417.88
2023-04-10T06:05:24.356Z,95412.13
2023-04-10T06:07:52.770Z,95369.00
2023-04-10T06:10:21.333Z,95402.53
2023-04-10T06:12:49.311Z,95424.44
2023-04-10T06:15:21.647Z,95365.31
2023-04-10T06:17:49.857Z,95412.84
2023-04-10T06:20:20.552Z,95412.97
2023-04-10T06:22:49.332Z,95413.03
2023-04-10T06:25:18.036Z,95419.09
2023-04-10T06:27:46.209Z,95408.50
2023-04-10T06:30:14.340Z,95410.84
2023-04-10T06:32:43.741Z,95347.34
2023-04-10T06:35:13.119Z,95409.47
2023-04-10T06:37:41.492Z,95387.75
2023-04-10T06:40:11.818Z,95419.44
2023-04-10T06:42:41.184Z,95417.81
2023-04-10T06:45:11.661Z,95410.72
2023-04-10T06:47:42.112Z,95414.66
2023-04-10T06:50:12.126Z,95412.16
2023-04-10T06:52:40.252Z,95381.19
2023-04-10T06:55:09.069Z,95428.22
2023-04-10T06:57:37.144Z,95421.66
2023-04-10T07:00:05.639Z,95432.56
2023-04-10T07:02:33.676Z,95389.22
2023-04-10T07:05:02.047Z,95429.38
2023-04-10T07:07:31.570Z,95355.50
2023-04-10T07:09:59.551Z,95415.38
2023-04-10T07:12:27.548Z,95428.78
2023-04-10T07:14:55.696Z,95433.06
2023-04-10T07:17:23.746Z,95426.16
2023-04-10T07:19:51.837Z,95412.56
2023-04-10T07:22:19.894Z,95431.34
2023-04-10T07:24:49.744Z,95414.38
2023-04-10T07:27:18.061Z,95429.06
2023-04-10T07:29:46.482Z,95362.03
2023-04-10T07:32:14.546Z,95436.59
2023-04-10T07:34:43.267Z,95431.03
2023-04-10T07:37:11.624Z,95429.56
2023-04-10T07:39:39.577Z,95427.66
2023-04-10T07:42:08.966Z,95413.63
2023-04-10T07:44:37.077Z,95433.94
2023-04-10T07:47:05.316Z,95425.81
2023-04-10T07:49:33.397Z,95430.06
2023-04-10T07:52:01.781Z,95429.31
2023-04-10T07:54:32.712Z,95426.53
2023-04-10T07:57:00.647Z,95424.78
2023-04-10T07:59:29.971Z,95425.34
2023-04-10T08:01:58.053Z,95432.88
2023-04-10T08:04:26.884Z,95429.47
2023-04-10T08:06:55.904Z,95425.78
2023-04-10T08:09:23.914Z,95430.72
2023-04-10T08:11:52.081Z,95423.16
2023-04-10T08:14:20.076Z,95425.38
2023-04-10T08:16:49.455Z,95426.63
2023-04-10T08:19:17.512Z,95427.50
2023-04-10T08:21:45.537Z,95416.06
2023-04-10T08:24:15.503Z,95420.59
2023-04-10T08:26:44.098Z,95423.28
2023-04-10T08:29:13.552Z,95418.88
2023-04-10T08:31:42.189Z,95426.97
2023-04-10T08:34:12.816Z,95426.78
2023-04-10T08:36:41.325Z,95430.00
2023-04-10T08:39:09.292Z,95424.69
2023-04-10T08:41:37.646Z,95425.63
2023-04-10T08:44:06.263Z,95421.56
2023-04-10T08:46:38.393Z,95418.88
2023-04-10T08:49:07.529Z,95426.25
2023-04-10T08:51:40.583Z,95412.50
2023-04-10T08:54:13.845Z,95421.75
2023-04-10T08:56:47.297Z,95410.19
2023-04-10T08:59:17.600Z,95398.66
2023-04-10T09:01:47.093Z,95411.59
2023-04-10T09:04:18.448Z,95403.97
2023-04-10T09:06:48.873Z,95400.78
2023-04-10T09:09:18.207Z,95399.59
2023-04-10T09:12:11.296Z,95399.63
2023-04-10T09:14:39.592Z,95375.44
2023-04-10T09:17:18.707Z,95393.97
2023-04-10T09:19:49.705Z,95396.03
2023-04-10T09:22:19.374Z,95379.72
2023-04-10T09:24:48.613Z,95368.53
2023-04-10T09:27:33.773Z,95404.19
2023-04-10T09:30:02.423Z,95395.13
2023-04-10T09:32:41.559Z,95394.44
2023-04-10T09:35:10.958Z,95394.53
2023-04-10T09:37:42.386Z,95391.03
2023-04-10T09:40:21.961Z,95388.19
2023-04-10T09:42:49.934Z,95378.00
2023-04-10T09:45:20.630Z,95386.88
2023-04-10T09:48:03.574Z,95384.06
2023-04-10T09:50:39.642Z,95380.78
2023-04-10T09:53:15.864Z,95379.97
2023-04-10T09:58:30.445Z,95377.78
2023-04-10T10:00:58.715Z,95382.50
2023-04-10T10:03:29.712Z,95383.63
2023-04-10T10:05:58.679Z,95373.03
2023-04-10T10:08:33.927Z,95377.97
2023-04-10T10:11:10.674Z,95371.13
2023-04-10T10:13:48.305Z,95364.81
2023-04-10T10:16:21.034Z,95364.94
2023-04-10T10:18:56.480Z,95357.72
2023-04-10T10:21:26.693Z,95329.59
2023-04-10T10:23:58.119Z,95325.38
2023-04-10T10:26:27.165Z,95348.88
2023-04-10T10:28:56.835Z,95332.34
2023-04-10T10:31:28.131Z,95347.13
2023-04-10T10:33:57.190Z,95337.66
2023-04-10T10:36:26.214Z,95346.91
2023-04-10T10:39:05.992Z,95338.59
2023-04-10T10:41:41.997Z,95338.81
2023-04-10T10:44:15.996Z,95325.94
2023-04-10T10:46:48.389Z,95271.81
2023-04-10T10:49:16.597Z,95336.31
2023-04-10T10:51:46.627Z,95328.78
2023-04-10T10:54:33.181Z,95329.53
2023-04-10T10:57:01.460Z,95319.72
2023-04-10T10:59:57.852Z,95320.47
2023-04-10T11:02:26.708Z,95312.75
2023-04-10T11:04:54.794Z,95298.34
2023-04-10T11:07:23.155Z,95304.97
2023-04-10T11:09:54.587Z,95291.38
2023-04-10T11:12:24.689Z,95290.66
2023-04-10T11:15:00.395Z,95292.44
2023-04-10T11:17:51.559Z,95280.28
2023-04-10T11:20:22.299Z,95291.66
2023-04-10T11:23:13.417Z,95297.03
2023-04-10T11:25:50.422Z,95217.47
2023-04-10T11:28:38.260Z,95237.69
2023-04-10T11:31:19.633Z,95301.47
2023-04-10T11:33:51.002Z,95287.34
2023-04-10T11:36:19.299Z,95289.00
2023-04-10T11:38:57.865Z,95246.94
2023-04-10T11:41:32.276Z,95294.75
2023-04-10T11:44:01.570Z,95289.50
2023-04-10T11:46:30.196Z,95284.53
2023-04-10T11:49:01.855Z,95284.31
2023-04-10T11:51:31.176Z,95286.34
2023-04-10T11:54:07.208Z,95271.16
2023-04-10T11:56:37.606Z,95296.47
2023-04-10T11:59:09.777Z,95277.34
2023-04-10T12:01:39.877Z,95268.06
2023-04-10T12:04:15.664Z,95274.81
2023-04-10T12:06:46.206Z,95277.66
2023-04-10T12:09:15.968Z,95285.94
2023-04-10T12:11:53.053Z,95274.31
2023-04-10T12:14:22.226Z,95257.75
2023-04-10T12:16:50.700Z,95315.34
2023-04-10T12:19:19.533Z,95330.75
2023-04-10T12:21:47.883Z,95332.22
2023-04-10T12:24:42.291Z,95337.34
2023-04-10T12:27:17.627Z,95333.38
2023-04-10T12:29:46.097Z,95337.16
2023-04-10T12:32:14.958Z,95353.78
2023-04-10T12:34:43.943Z,95358.28
2023-04-10T12:37:12.251Z,95354.56
2023-04-10T12:39:41.697Z,95355.88
2023-04-10T12:42:16.792Z,95337.84
2023-04-10T12:44:58.865Z,95326.09
2023-04-10T12:47:28.147Z,95319.25
2023-04-10T12:50:08.050Z,95318.56
2023-04-10T12:52:37.811Z,95327.63
2023-04-10T12:55:14.649Z,95315.06
2023-04-10T12:57:47.952Z,95309.75
2023-04-10T13:00:18.580Z,95305.97
2023-04-10T13:02:47.855Z,95307.56
2023-04-10T13:05:17.668Z,95303.63
2023-04-10T13:07:45.812Z,95305.34
2023-04-10T13:10:13.776Z,95297.41
2023-04-10T13:12:44.745Z,95290.19
2023-04-10T13:15:12.948Z,95281.50
2023-04-10T13:17:45.735Z,95285.31
2023-04-10T13:20:17.231Z,95277.41
2023-04-10T13:22:48.428Z,95274.53
2023-04-10T13:25:17.531Z,95275.19
2023-04-10T13:27:51.456Z,95263.66
2023-04-10T13:30:19.505Z,95266.47
2023-04-10T13:32:48.292Z,95263.31
2023-04-10T13:35:17.804Z,95266.03
2023-04-10T13:37:47.630Z,95265.88
2023-04-10T13:40:16.675Z,95266.94
2023-04-10T13:45:35.001Z,95255.25
2023-04-10T13:48:04.129Z,95252.00
2023-04-10T13:50:39.517Z,95261.84
2023-04-10T13:53:10.619Z,95258.56
2023-04-10T13:55:43.881Z,95254.09
2023-04-10T14:01:04.848Z,95247.53
2023-04-10T14:03:32.902Z,95247.81
2023-04-10T14:06:01.941Z,95240.50
2023-04-10T14:08:32.076Z,95239.41
2023-04-10T14:11:00.427Z,95242.44
2023-04-10T14:13:30.847Z,95241.81
2023-04-10T14:16:04.104Z,95245.81
2023-04-10T14:18:32.972Z,95250.06
2023-04-10T14:21:01.530Z,95253.34
2023-04-10T14:23:31.812Z,95246.56
2023-04-10T14:26:00.489Z,95244.63
2023-04-10T14:28:29.841Z,95242.88
2023-04-10T14:30:58.364Z,95244.22
2023-04-10T14:33:27.495Z,95245.78
2023-04-10T14:35:55.743Z,95245.53
2023-04-10T14:38:25.285Z,95238.56
2023-04-10T14:40:54.167Z,95236.53
2023-04-10T14:43:22.312Z,95235.28
2023-04-10T14:45:51.679Z,95240.34
2023-04-10T14:48:19.999Z,95234.84
2023-04-10T14:50:49.343Z,95233.56
2023-04-10T14:53:18.503Z,95238.66
2023-04-10T14:55:46.464Z,95241.47
2023-04-10T14:58:14.758Z,95239.75
2023-04-10T15:00:43.978Z,95242.28
2023-04-10T15:03:13.506Z,95225.09
2023-04-10T15:05:42.365Z,95236.94
2023-04-10T15:08:10.427Z,95240.59
2023-04-10T15:10:38.356Z,95238.63
2023-04-10T15:13:06.634Z,95222.50
2023-04-10T15:15:34.642Z,95235.59
2023-04-10T15:18:02.752Z,95230.44
2023-04-10T15:20:39.585Z,95229.47
2023-04-10T15:23:13.506Z,95235.44
2023-04-10T15:25:50.531Z,95234.78
2023-04-10T15:28:23.827Z,95229.19
2023-04-10T15:30:54.309Z,95237.25
2023-04-10T15:33:23.061Z,95227.38
2023-04-10T15:35:52.876Z,95206.63
2023-04-10T15:38:21.364Z,95220.44
2023-04-10T15:40:49.710Z,95217.16
2023-04-10T15:43:18.276Z,95217.88
2023-04-10T15:45:46.637Z,95222.56
2023-04-10T15:48:14.938Z,95215.53
2023-04-10T15:50:43.275Z,95212.97
2023-04-10T15:53:12.622Z,95208.03
2023-04-10T15:55:41.247Z,95210.75
2023-04-10T15:58:09.186Z,95215.75
2023-04-10T16:00:37.218Z,95221.34
2023-04-10T16:03:05.911Z,95220.13
2023-04-10T16:05:34.091Z,95210.75
2023-04-10T16:08:03.668Z,95215.25
2023-04-10T16:10:33.192Z,95220.31
2023-04-10T16:13:04.418Z,95215.94
2023-04-10T16:15:35.481Z,95207.59
2023-04-10T16:18:04.647Z,95217.84
2023-04-10T16:20:32.868Z,95202.19
2023-04-10T16:23:01.356Z,95199.13
2023-04-10T16:25:30.791Z,95221.72
2023-04-10T16:28:00.123Z,95177.56
2023-04-10T16:30:28.093Z,95242.31
2023-04-10T16:32:56.060Z,95258.19
2023-04-10T16:35:24.288Z,95256.75
2023-04-10T16:37:52.530Z,95253.81
2023-04-10T16:40:20.692Z,95258.56
2023-04-10T16:42:48.732Z,95247.22
2023-04-10T16:45:18.357Z,95239.00
2023-04-10T16:47:46.379Z,95223.97
2023-04-10T16:50:14.448Z,95250.63
2023-04-10T16:52:42.512Z,95247.66
2023-04-10T16:55:10.580Z,95238.75
2023-04-10T16:57:38.560Z,95239.75
2023-04-10T17:00:07.876Z,95257.69
2023-04-10T17:02:37.435Z,95249.44
2023-04-10T17:05:05.637Z,95251.53
2023-04-10T17:07:33.856Z,95249.44
2023-04-10T17:10:01.889Z,95252.00
2023-04-10T17:12:30.273Z,95249.00
2023-04-10T17:14:58.238Z,95264.34
2023-04-10T17:17:26.439Z,95265.00
2023-04-10T17:19:55.954Z,95273.34
2023-04-10T17:22:24.041Z,95273.53
2023-04-10T17:24:52.253Z,95277.47
2023-04-10T17:27:20.370Z,95270.22
2023-04-10T17:29:48.624Z,95272.28
2023-04-10T17:32:16.738Z,95263.56
2023-04-10T17:34:44.791Z,95262.81
2023-04-10T17:37:14.147Z,95270.41
2023-04-10T17:39:42.129Z,95265.84
2023-04-10T17:42:10.076Z,95272.34
2023-04-10T17:44:38.093Z,95271.72
2023-04-10T17:47:06.938Z,95276.03
2023-04-10T17:49:35.053Z,95232.44
2023-04-10T17:52:03.108Z,95273.34
2023-04-10T17:54:32.443Z,95277.97
2023-04-10T17:57:01.559Z,95280.97
2023-04-10T17:59:32.064Z,95283.34
2023-04-10T18:02:00.169Z,95297.56
2023-04-10T18:04:28.296Z,95300.84
2023-04-10T18:06:56.218Z,95281.75
2023-04-10T18:09:24.217Z,95290.44
2023-04-10T18:11:53.519Z,95263.91
2023-04-10T18:14:21.708Z,95295.53
2023-04-10T18:16:50.385Z,95248.41
2023-04-10T18:19:18.526Z,95294.91
2023-04-10T18:21:46.802Z,95305.78
2023-04-10T18:24:15.203Z,95310.22
2023-04-10T18:26:45.245Z,95299.19
2023-04-10T18:29:14.775Z,95307.25
2023-04-10T18:31:42.743Z,95300.28
2023-04-10T18:34:10.929Z,95298.72
2023-04-10T18:36:39.255Z,95307.38
2023-04-10T18:39:07.344Z,95301.72
2023-04-10T18:41:35.506Z,95305.81
2023-04-10T18:44:05.359Z,95305.97
2023-04-10T18:46:35.503Z,95301.88
2023-04-10T18:49:03.761Z,95253.50
2023-04-10T18:51:35.006Z,95201.69
2023-04-10T18:54:03.457Z,95292.41
2023-04-10T18:56:31.580Z,95310.56
2023-04-10T18:58:59.557Z,95302.81
2023-04-10T19:01:28.320Z,95310.88
2023-04-10T19:03:58.138Z,95302.34
2023-04-10T19:06:27.959Z,95301.88
2023-04-10T19:08:56.751Z,95279.38
2023-04-10T19:11:24.958Z,95294.25
2023-04-10T19:13:53.255Z,95289.16
2023-04-10T19:16:21.595Z,95236.03
2023-04-10T19:18:50.015Z,95298.44
2023-04-10T19:21:19.355Z,95305.66
2023-04-10T19:23:47.856Z,95297.22
2023-04-10T19:26:16.016Z,95312.97
2023-04-10T19:28:44.128Z,95308.59
2023-04-10T19:31:12.600Z,95305.47
2023-04-10T19:33:41.388Z,95304.53
2023-04-10T19:36:09.878Z,95290.97
2023-04-10T19:38:41.094Z,95293.19
2023-04-10T19:41:16.418Z,95303.91
2023-04-10T19:43:44.847Z,95297.22
2023-04-10T19:46:19.187Z,95295.22
2023-04-10T19:48:47.673Z,95294.56
2023-04-10T19:51:15.860Z,95241.94
2023-04-10T19:53:45.445Z,95278.59
2023-04-10T19:56:13.442Z,95278.31
2023-04-10T19:58:56.254Z,95269.97
2023-04-10T20:01:24.642Z,95232.19
2023-04-10T20:03:52.890Z,95265.38
2023-04-10T20:06:22.095Z,95256.09
2023-04-10T20:08:51.843Z,95250.28
2023-04-10T20:11:19.979Z,95227.84
2023-04-10T20:13:49.138Z,95252.03
2023-04-10T20:16:17.151Z,95230.66
2023-04-10T20:18:45.148Z,95246.00
2023-04-10T20:21:13.081Z,95248.19
2023-04-10T20:23:41.273Z,95223.66
2023-04-10T20:26:12.313Z,95250.22
2023-04-10T20:28:40.471Z,95244.25
2023-04-10T20:31:10.715Z,95234.19
2023-04-10T20:33:38.751Z,95224.06
2023-04-10T20:36:07.855Z,95239.72
2023-04-10T20:38:35.835Z,95239.72
2023-04-10T20:41:03.886Z,95248.41
2023-04-10T20:43:33.317Z,95237.34
2023-04-10T20:46:04.445Z,95190.41
2023-04-10T20:48:32.394Z,95244.63
2023-04-10T20:51:00.742Z,95253.31
2023-04-10T20:53:29.155Z,95249.84
2023-04-10T20:55:58.087Z,95245.25
2023-04-10T20:58:26.251Z,95251.28
2023-04-10T21:00:56.773Z,95244.31
2023-04-10T21:03:24.953Z,95244.44
2023-04-10T21:05:53.974Z,95239.41
2023-04-10T21:08:22.171Z,95243.38
2023-04-10T21:10:51.464Z,95241.47
2023-04-10T21:13:21.782Z,95241.00
2023-04-10T21:15:50.162Z,95235.75
2023-04-10T21:18:20.308Z,95237.34
2023-04-10T21:20:54.508Z,95237.34
2023-04-10T21:23:22.789Z,95233.19
2023-04-10T21:25:52.983Z,95225.78
2023-04-10T21:28:20.984Z,95229.09
2023-04-10T21:30:48.874Z,95229.81
2023-04-10T21:33:19.202Z,95229.16
2023-04-10T21:35:49.032Z,95188.84
2023-04-10T21:38:16.981Z,95232.66
2023-04-10T21:40:52.108Z,95222.72
2023-04-10T21:43:20.504Z,95222.88
2023-04-10T21:45:48.617Z,95221.00
2023-04-10T21:48:16.816Z,95222.59
2023-04-10T21:50:44.784Z,95213.84
2023-04-10T21:53:14.393Z,95176.88
2023-04-10T21:55:42.377Z,95217.66
2023-04-10T21:58:10.351Z,95214.81
2023-04-10T22:00:38.607Z,95216.38
2023-04-10T22:03:07.673Z,95195.72
2023-04-10T22:05:35.727Z,95203.47
2023-04-10T22:08:03.728Z,95210.41
2023-04-10T22:10:33.107Z,95204.25
2023-04-10T22:13:01.086Z,95197.31
2023-04-10T22:15:29.215Z,95190.38
2023-04-10T22:17:57.209Z,95194.78
2023-04-10T22:20:25.201Z,95181.69
2023-04-10T22:22:53.317Z,95187.19
2023-04-10T22:25:21.309Z,95189.72
2023-04-10T22:27:50.848Z,95143.44
2023-04-10T22:30:19.098Z,95157.44
2023-04-10T22:32:47.093Z,95199.94
2023-04-10T22:35:15.061Z,95201.09
2023-04-10T22:37:44.636Z,95194.31
2023-04-10T22:40:12.751Z,95189.94
2023-04-10T22:42:41.113Z,95194.03
2023-04-10T22:45:11.572Z,95185.19
2023-04-10T22:47:39.497Z,95183.13
2023-04-10T22:50:08.610Z,95180.78
2023-04-10T22:52:36.509Z,95185.19
2023-04-10T22:55:06.833Z,95184.06
2023-04-10T22:57:34.880Z,95185.97
2023-04-10T23:00:02.797Z,95184.38
2023-04-10T23:02:32.358Z,95175.88
2023-04-10T23:05:00.365Z,95178.88
2023-04-10T23:07:28.311Z,95180.34
2023-04-10T23:09:56.210Z,95182.88
2023-04-10T23:12:24.481Z,95174.03
2023-04-10T23:14:52.408Z,95178.00
2023-04-10T23:17:21.177Z,95177.53
2023-04-10T23:19:50.534Z,95161.09
2023-04-10T23:22:18.471Z,95165.19
2023-04-10T23:24:46.838Z,95166.47
2023-04-10T23:27:14.772Z,95155.25
2023-04-10T23:29:42.715Z,95146.28
2023-04-10T23:32:10.707Z,95150.06
2023-04-10T23:34:38.659Z,95147.56
2023-04-10T23:37:08.027Z,95139.34
2023-04-10T23:39:35.934Z,95138.84
2023-04-10T23:42:04.133Z,95136.34
2023-04-10T23:44:32.279Z,95135.53
2023-04-10T23:47:00.326Z,95139.78
2023-04-10T23:49:28.311Z,95138.06
2023-04-10T23:51:56.349Z,95123.56
2023-04-10T23:54:25.683Z,95118.50
2023-04-10T23:56:53.738Z,95098.47
2023-04-10T23:59:21.679Z,95105.41
